Wright Patterson Air Force Base Dayton US
ICAO: KFFO
IATA: FFO
Category: Large
Scheduled Services: No

Elevation: 823 ft
TransAlt. 18000 ft.

Airport Communications:
DAYTON APP/DEP:118.85
ATIS:124.475
GND:121.8
PMSV METRO:34.46
445AW AFRC COMD POST:34.94
PTD:122.85
PATTERSON TWR:126.9

KFFO Zoom In..

If you have problems with the map follow the link
https://www.worldairports.se/pages/airport.php?
ICAO=KFFO

Runways:

(A) RW 05L length 12600 ft width 300 ft
ILS 109.70 / hdg 53

(B) RW 05R length 7000 ft width 150 ft
---- / hdg 53

(C) RW 23L length 7000 ft width 150 ft
---- / hdg 233

(D) RW 23R length 12600 ft width 300 ft
ILS 109.70 / hdg 233

Location; KFFO
Day. 10 / Time. 01.56 Zulu
* Altimeter: 29.62
* Temperature: 13° c. 55.4°f.
* Wind from: 240° Speed 11 kn.
Dewpoint: 11° c.
Visibility: 10 Statute Miles.
Clouds: Few 700 ft.
Clouds: Overcast 1300 ft.
Conditions: Light Rain.

KFFO 100156Z 24011KT 10SM -RA FEW007 OVC013 13/11 A2962 RMK AO2A SLP033 P0002 T01250112 $


Wind From 240°
Speed 11 kn.

 
 
jpsmedia worldairports.se 2019   terms of use